Time;durP1;ratioP1;P1;durP2;ratioP2;P2;SDS_P1;SDS_P2;PMS_P1;PMS_P2;Temp;Humidity;BMP_temperature;BMP_pressure;BME280_temperature;BME280_humidity;BME280_pressure;Samples;Min_cycle;Max_cycle;Signal;HPM_P1;HPM_P2
2022/05/06 00:00:01;;;;;;;;;;;;;;;17.56;41.53;102007.13;4990209;28;96997;-70
2022/05/06 00:02:27;;;;;;;;;;;;;;;17.69;41.24;102000.31;4986870;28;98888;-69
2022/05/06 00:04:53;;;;;;;;;;;;;;;17.20;42.04;102006.09;4985290;28;96933;-69
2022/05/06 00:07:21;;;;;;;;;;;;;;;17.13;42.71;102011.66;4986891;28;97040;-69
2022/05/06 00:09:47;;;;;;;;;;;;;;;16.94;43.43;102008.03;4979505;28;99169;-69
2022/05/06 00:12:17;;;;;;;;;;;;;;;17.06;43.25;102020.03;4983535;28;99565;-70
2022/05/06 00:14:43;;;;;;;;;;;;;;;16.93;44.23;102009.00;4985778;28;97648;-70
2022/05/06 00:17:09;;;;;;;;;;;;;;;16.84;44.44;102012.03;4987162;28;99051;-71
2022/05/06 00:19:36;;;;;;;;;;;;;;;16.52;45.21;102026.66;4992886;28;99397;-71
2022/05/06 00:22:02;;;;;;;;;;;;;;;16.54;45.27;102021.25;4986296;28;97611;-69
2022/05/06 00:24:30;;;;;;;;;;;;;;;16.33;45.85;102023.84;4980497;28;97600;-70
2022/05/06 00:26:56;;;;;;;;;;;;;;;16.77;44.81;102015.88;4983636;28;97039;-71
2022/05/06 00:29:23;;;;;;;;;;;;;;;16.76;44.56;102014.13;4986793;28;99062;-68
2022/05/06 00:31:49;;;;;;;;;;;;;;;16.38;45.50;102018.31;4981022;28;97644;-69
2022/05/06 00:34:16;;;;;;;;;;;;;;;16.18;46.28;102015.56;4983974;28;97306;-69
2022/05/06 00:36:42;;;;;;;;;;;;;;;15.86;47.50;102023.00;4984988;28;96943;-70
2022/05/06 00:39:09;;;;;;;;;;;;;;;15.86;47.80;102025.66;4986815;28;99415;-69
2022/05/06 00:41:37;;;;;;;;;;;;;;;15.66;48.48;102012.19;4984440;28;99249;-70
2022/05/06 00:44:06;;;;;;;;;;;;;;;15.33;49.20;102024.91;4983278;28;97054;-69
2022/05/06 00:46:33;;;;;;;;;;;;;;;15.49;48.71;102011.91;4981241;28;96823;-71
2022/05/06 00:49:00;;;;;;;;;;;;;;;15.47;49.04;102008.44;4984955;28;101916;-69
2022/05/06 00:51:27;;;;;;;;;;;;;;;15.47;48.92;102011.97;4981115;28;99844;-70
2022/05/06 00:53:54;;;;;;;;;;;;;;;15.57;48.73;102011.66;4984887;28;97873;-69
2022/05/06 00:56:24;;;;;;;;;;;;;;;15.36;49.45;102010.63;4987781;28;96908;-69
2022/05/06 00:59:13;;;;;;;;;;;;;;;15.36;49.93;102013.28;5046341;27;96873;-69
2022/05/06 01:01:40;;;;;;;;;;;;;;;15.35;49.97;102025.72;5042261;27;96827;-70
2022/05/06 01:04:06;;;;;;;;;;;;;;;15.26;50.15;102028.69;5043493;27;97848;-69
2022/05/06 01:06:33;;;;;;;;;;;;;;;15.46;49.30;102025.34;5044382;27;99043;-69
2022/05/06 01:09:00;;;;;;;;;;;;;;;15.28;49.65;102020.66;5041428;27;98549;-69
2022/05/06 01:11:26;;;;;;;;;;;;;;;15.35;49.47;102023.06;5039795;27;96815;-69
2022/05/06 01:13:55;;;;;;;;;;;;;;;15.27;49.84;102024.25;5042508;27;100461;-69
2022/05/06 01:16:22;;;;;;;;;;;;;;;15.19;50.14;102019.19;5039282;27;98910;-69
2022/05/06 01:18:49;;;;;;;;;;;;;;;15.08;50.65;102019.56;5037068;27;97248;-69
2022/05/06 01:21:19;;;;;;;;;;;;;;;14.79;51.17;102013.44;5043362;27;97316;-70
2022/05/06 01:23:46;;;;;;;;;;;;;;;14.79;51.32;102021.44;5046648;27;97625;-70
2022/05/06 01:26:12;;;;;;;;;;;;;;;14.87;51.18;102025.59;5041243;27;98717;-70
2022/05/06 01:28:39;;;;;;;;;;;;;;;14.77;51.52;102030.31;5042025;27;97773;-70
2022/05/06 01:31:05;;;;;;;;;;;;;;;15.05;50.79;102021.44;5043807;27;97134;-69
2022/05/06 01:33:32;;;;;;;;;;;;;;;14.98;51.16;102026.09;5044372;27;98862;-69
2022/05/06 01:36:00;;;;;;;;;;;;;;;15.15;50.48;102025.53;5039178;27;98919;-69
2022/05/06 01:38:29;;;;;;;;;;;;;;;14.91;51.09;102029.00;5041310;27;97168;-69
2022/05/06 01:41:00;;;;;;;;;;;;;;;15.03;50.79;102025.97;5041398;27;97131;-68
2022/05/06 01:43:27;;;;;;;;;;;;;;;14.83;51.37;102023.09;5042015;27;99345;-68
2022/05/06 01:45:55;;;;;;;;;;;;;;;14.89;51.83;102028.22;5036679;27;98061;-69
2022/05/06 01:48:22;;;;;;;;;;;;;;;14.93;51.53;102032.50;5039879;27;97483;-69
2022/05/06 01:50:49;;;;;;;;;;;;;;;14.67;52.49;102028.03;5047016;27;98549;-68
2022/05/06 01:53:16;;;;;;;;;;;;;;;14.74;52.16;102030.44;5044637;27;98843;-69
2022/05/06 01:55:43;;;;;;;;;;;;;;;14.67;52.44;102042.19;5046228;27;98786;-69
2022/05/06 01:58:11;;;;;;;;;;;;;;;15.27;50.55;102033.09;5041494;27;97082;-68
2022/05/06 02:00:37;;;;;;;;;;;;;;;15.02;51.24;102035.72;5040518;27;97175;-70
2022/05/06 02:03:03;;;;;;;;;;;;;;;14.94;51.49;102034.25;5041673;27;101090;-70
2022/05/06 02:05:28;;;;;;;;;;;;;;;14.91;51.88;102031.66;5041232;27;99333;-69
2022/05/06 02:07:55;;;;;;;;;;;;;;;14.84;51.96;102033.66;5038748;27;97770;-68
2022/05/06 02:10:22;;;;;;;;;;;;;;;14.74;52.58;102033.09;5027753;27;97078;-69
2022/05/06 02:12:48;;;;;;;;;;;;;;;15.01;51.77;102027.78;5022817;27;99418;-68
2022/05/06 02:15:17;;;;;;;;;;;;;;;15.02;51.63;102032.19;5024492;27;97694;-68
2022/05/06 02:17:43;;;;;;;;;;;;;;;15.22;50.35;102029.75;5032213;27;97576;-69
2022/05/06 02:20:10;;;;;;;;;;;;;;;15.21;50.68;102025.31;5029652;27;96877;-68
2022/05/06 02:22:37;;;;;;;;;;;;;;;15.48;50.05;102028.81;5025540;27;98839;-68
2022/05/06 02:25:04;;;;;;;;;;;;;;;15.57;49.76;102038.28;5028491;27;99090;-68
2022/05/06 02:27:30;;;;;;;;;;;;;;;15.71;49.37;102030.69;5029253;27;98648;-69
2022/05/06 02:35:28;;;;;;;;;;;;;;;15.13;51.66;102030.91;5026728;27;97061;-69
2022/05/06 02:37:54;;;;;;;;;;;;;;;15.09;51.92;102029.28;5032267;27;96872;-69
2022/05/06 02:40:21;;;;;;;;;;;;;;;15.07;52.30;102028.47;5031903;27;97483;-68
2022/05/06 02:42:47;;;;;;;;;;;;;;;14.89;52.51;102022.88;5023404;27;99185;-70
2022/05/06 02:45:13;;;;;;;;;;;;;;;14.59;53.41;102022.06;5027494;28;98935;-68
2022/05/06 02:47:39;;;;;;;;;;;;;;;14.48;53.48;102027.75;5022663;27;97271;-67
2022/05/06 02:50:08;;;;;;;;;;;;;;;14.52;53.46;102025.84;5030082;28;97826;-67
2022/05/06 02:52:34;;;;;;;;;;;;;;;14.73;52.90;102030.50;5030314;27;99134;-67
2022/05/06 02:55:00;;;;;;;;;;;;;;;14.44;53.67;102031.41;5030674;27;99481;-68
2022/05/06 02:57:27;;;;;;;;;;;;;;;14.34;53.86;102028.13;5025460;27;96917;-67
2022/05/06 02:59:53;;;;;;;;;;;;;;;14.33;54.05;102029.06;5028282;27;97751;-67
2022/05/06 03:02:20;;;;;;;;;;;;;;;14.39;54.24;102032.47;5027189;27;102774;-67
2022/05/06 03:04:46;;;;;;;;;;;;;;;14.20;54.64;102029.47;5024756;27;99359;-67
2022/05/06 03:07:13;;;;;;;;;;;;;;;14.35;54.19;102026.34;5022730;28;97021;-67
2022/05/06 03:09:40;;;;;;;;;;;;;;;14.18;54.62;102028.63;5030391;27;98536;-67
2022/05/06 03:12:07;;;;;;;;;;;;;;;14.09;54.89;102035.13;5024088;27;99385;-68
2022/05/06 03:14:33;;;;;;;;;;;;;;;14.18;54.65;102029.50;5022758;27;98895;-68
2022/05/06 03:16:59;;;;;;;;;;;;;;;14.16;54.34;102038.47;5031929;27;97022;-68
2022/05/06 03:19:25;;;;;;;;;;;;;;;14.23;54.41;102037.38;5028697;27;98368;-67
2022/05/06 03:21:54;;;;;;;;;;;;;;;13.98;55.11;102041.69;5027933;27;98940;-67
2022/05/06 03:24:21;;;;;;;;;;;;;;;14.32;54.13;102034.41;5010969;28;98825;-67
2022/05/06 03:26:47;;;;;;;;;;;;;;;14.40;53.91;102040.41;5008142;28;96690;-69
2022/05/06 03:29:14;;;;;;;;;;;;;;;14.25;54.04;102035.50;5013640;28;97529;-67
2022/05/06 03:31:40;;;;;;;;;;;;;;;14.44;53.63;102039.38;5011454;28;98886;-67
2022/05/06 03:34:07;;;;;;;;;;;;;;;14.26;53.85;102042.56;5005406;28;98703;-67
2022/05/06 03:36:33;;;;;;;;;;;;;;;14.35;53.97;102034.34;5006780;28;96835;-68
2022/05/06 03:38:59;;;;;;;;;;;;;;;14.48;53.67;102040.16;5002899;28;97253;-68
2022/05/06 03:41:27;;;;;;;;;;;;;;;14.47;53.75;102039.31;5008852;28;98954;-69
2022/05/06 03:43:53;;;;;;;;;;;;;;;14.43;53.90;102047.44;5006117;28;98708;-68
2022/05/06 03:46:19;;;;;;;;;;;;;;;14.63;53.54;102047.69;5005354;28;98695;-69
2022/05/06 03:48:46;;;;;;;;;;;;;;;14.58;53.38;102047.81;5004991;28;96842;-68
2022/05/06 03:51:23;;;;;;;;;;;;;;;14.48;53.96;102048.16;5007564;28;99462;-68
2022/05/06 03:53:50;;;;;;;;;;;;;;;14.57;53.64;102048.72;5000474;28;97485;-68
2022/05/06 03:56:16;;;;;;;;;;;;;;;14.61;53.63;102050.38;5009595;28;97922;-67
2022/05/06 03:58:44;;;;;;;;;;;;;;;14.58;53.88;102060.22;5002059;28;98292;-69
2022/05/06 04:01:10;;;;;;;;;;;;;;;14.68;53.58;102056.38;5007695;28;99280;-69
2022/05/06 04:03:37;;;;;;;;;;;;;;;14.94;52.70;102053.75;5009053;28;99403;-69
2022/05/06 04:06:03;;;;;;;;;;;;;;;15.09;52.23;102057.69;5008119;28;97348;-68
2022/05/06 04:08:30;;;;;;;;;;;;;;;14.83;52.93;102061.22;5008649;28;97581;-68
2022/05/06 04:10:57;;;;;;;;;;;;;;;15.00;52.80;102066.84;5010615;28;98961;-69
2022/05/06 04:13:23;;;;;;;;;;;;;;;15.11;52.61;102058.50;5006462;28;99264;-69
2022/05/06 04:15:51;;;;;;;;;;;;;;;15.11;52.51;102062.03;5003554;28;97745;-68
2022/05/06 04:18:17;;;;;;;;;;;;;;;15.19;52.52;102075.09;5004712;28;98713;-68
2022/05/06 04:23:31;;;;;;;;;;;;;;;15.58;51.67;102072.00;5003087;28;97003;-68
2022/05/06 04:25:58;;;;;;;;;;;;;;;16.06;50.48;102078.25;5005666;28;96841;-68
2022/05/06 04:28:24;;;;;;;;;;;;;;;16.11;50.12;102084.25;5005960;28;96841;-69
2022/05/06 04:30:52;;;;;;;;;;;;;;;16.49;49.31;102081.91;5003315;28;98956;-68
2022/05/06 04:33:18;;;;;;;;;;;;;;;16.48;48.77;102089.06;5005112;28;98693;-69
2022/05/06 04:35:46;;;;;;;;;;;;;;;16.27;48.28;102090.78;5004162;28;97039;-70
2022/05/06 04:38:12;;;;;;;;;;;;;;;16.20;47.24;102094.59;5009084;28;96967;-68
2022/05/06 04:40:38;;;;;;;;;;;;;;;16.31;46.88;102096.84;5004131;28;99456;-68
2022/05/06 04:43:05;;;;;;;;;;;;;;;16.33;46.47;102095.88;5007902;28;98748;-68
2022/05/06 04:45:31;;;;;;;;;;;;;;;16.45;46.26;102101.66;5011732;28;97351;-69
2022/05/06 04:47:59;;;;;;;;;;;;;;;16.16;46.11;102100.94;5008017;28;96939;-69
2022/05/06 04:50:27;;;;;;;;;;;;;;;16.50;45.14;102097.88;5010523;28;98930;-69
2022/05/06 04:52:53;;;;;;;;;;;;;;;16.88;43.89;102104.41;5008123;28;99004;-69
2022/05/06 04:55:19;;;;;;;;;;;;;;;16.74;44.34;102102.28;5012272;28;97084;-70
2022/05/06 04:57:45;;;;;;;;;;;;;;;17.03;43.87;102105.59;5013040;28;98604;-70
2022/05/06 05:00:12;;;;;;;;;;;;;;;16.60;44.76;102109.97;5009267;28;101403;-69
2022/05/06 05:02:38;;;;;;;;;;;;;;;16.93;44.39;102114.91;5011022;28;99213;-68
2022/05/06 05:05:07;;;;;;;;;;;;;;;16.65;44.57;102112.47;5009594;28;96790;-68
2022/05/06 05:07:33;;;;;;;;;;;;;;;16.89;44.43;102108.81;5011143;28;96824;-69
2022/05/06 05:09:59;;;;;;;;;;;;;;;17.47;43.18;102109.06;5012542;28;99152;-71
2022/05/06 05:12:25;;;;;;;;;;;;;;;17.57;42.95;102109.56;5006591;28;97674;-69
2022/05/06 05:14:52;;;;;;;;;;;;;;;17.57;43.16;102110.44;5009302;28;96945;-69
2022/05/06 05:17:18;;;;;;;;;;;;;;;17.86;42.19;102120.72;5002302;28;97002;-68
2022/05/06 05:19:45;;;;;;;;;;;;;;;17.79;42.30;102119.25;4998678;28;99530;-70
2022/05/06 05:22:12;;;;;;;;;;;;;;;17.86;42.02;102120.72;4999565;28;97747;-69
2022/05/06 05:24:39;;;;;;;;;;;;;;;18.27;41.43;102115.34;4997105;28;96892;-70
2022/05/06 05:27:09;;;;;;;;;;;;;;;19.41;39.00;102115.19;5006459;28;96977;-69
2022/05/06 05:29:35;;;;;;;;;;;;;;;19.86;37.28;102120.88;5010549;28;99542;-69
2022/05/06 05:32:02;;;;;;;;;;;;;;;18.76;39.30;102123.78;5008844;28;99726;-70
2022/05/06 05:34:28;;;;;;;;;;;;;;;18.43;40.16;102124.41;5011109;28;96861;-68
2022/05/06 05:36:54;;;;;;;;;;;;;;;18.06;40.90;102124.31;5011687;28;96826;-68
2022/05/06 05:39:22;;;;;;;;;;;;;;;17.81;41.37;102130.78;5008902;28;97878;-70
2022/05/06 05:41:48;;;;;;;;;;;;;;;18.40;40.51;102134.38;5005420;28;99176;-68
2022/05/06 05:49:43;;;;;;;;;;;;;;;17.91;41.85;102134.78;5006408;28;97151;-69
2022/05/06 05:52:10;;;;;;;;;;;;;;;18.37;40.76;102132.72;5012659;28;101099;-69
2022/05/06 05:54:38;;;;;;;;;;;;;;;18.93;39.70;102124.69;5012808;28;96876;-69
2022/05/06 05:57:16;;;;;;;;;;;;;;;18.48;40.42;102135.75;5011507;28;98682;-70
2022/05/06 05:59:43;;;;;;;;;;;;;;;18.57;40.60;102134.50;5013076;28;98503;-68
2022/05/06 06:02:10;;;;;;;;;;;;;;;18.93;39.80;102130.06;5013716;28;99363;-68
2022/05/06 06:04:36;;;;;;;;;;;;;;;19.00;39.59;102135.97;5015266;28;96794;-68
2022/05/06 06:07:03;;;;;;;;;;;;;;;19.36;38.59;102128.78;5014254;28;96864;-68
2022/05/06 06:09:31;;;;;;;;;;;;;;;19.13;38.68;102126.41;5015028;28;98425;-69
2022/05/06 06:11:59;;;;;;;;;;;;;;;18.62;39.63;102138.69;5017038;28;98827;-69
2022/05/06 06:14:25;;;;;;;;;;;;;;;18.23;40.58;102121.78;5016136;28;96798;-69
2022/05/06 06:16:52;;;;;;;;;;;;;;;18.86;39.07;102138.47;5011535;28;96893;-69
2022/05/06 06:19:18;;;;;;;;;;;;;;;19.40;38.20;102129.53;5016381;28;101035;-69
2022/05/06 06:21:45;;;;;;;;;;;;;;;19.62;37.69;102129.34;5016028;28;98777;-69
2022/05/06 06:24:11;;;;;;;;;;;;;;;20.04;36.96;102143.19;5017301;28;96724;-69
2022/05/06 06:26:37;;;;;;;;;;;;;;;20.09;35.34;102137.56;5007099;28;98616;-71
2022/05/06 06:29:05;;;;;;;;;;;;;;;20.12;34.77;102143.66;5010833;28;99339;-70
2022/05/06 06:31:32;;;;;;;;;;;;;;;19.97;35.38;102135.53;5011482;28;98988;-70
2022/05/06 06:33:58;;;;;;;;;;;;;;;19.80;35.03;102139.97;5014628;28;97249;-69
2022/05/06 06:36:24;;;;;;;;;;;;;;;19.71;35.49;102140.44;5012784;28;96846;-70
2022/05/06 06:38:51;;;;;;;;;;;;;;;20.33;34.48;102143.47;5014432;28;101476;-70
2022/05/06 06:41:17;;;;;;;;;;;;;;;21.84;32.15;102134.69;5012508;28;98200;-68
2022/05/06 06:43:43;;;;;;;;;;;;;;;21.80;31.99;102138.50;5017164;28;97055;-69
2022/05/06 06:46:11;;;;;;;;;;;;;;;21.08;33.27;102141.88;5017084;28;97360;-69
2022/05/06 06:48:39;;;;;;;;;;;;;;;20.96;33.51;102142.56;5016383;28;99154;-70
2022/05/06 06:51:05;;;;;;;;;;;;;;;21.11;33.49;102145.34;5016967;28;99178;-68
2022/05/06 06:53:32;;;;;;;;;;;;;;;21.23;33.40;102147.34;5016866;28;96656;-69
2022/05/06 06:55:58;;;;;;;;;;;;;;;20.79;33.63;102152.56;5016267;28;96800;-70
2022/05/06 06:58:25;;;;;;;;;;;;;;;20.56;34.05;102156.50;5015872;28;101348;-69
2022/05/06 07:00:52;;;;;;;;;;;;;;;20.94;33.82;102146.28;5016343;28;98926;-69
2022/05/06 07:03:20;;;;;;;;;;;;;;;21.28;33.35;102153.31;5017412;28;97049;-69
2022/05/06 07:13:55;;;;;;;;;;;;;;;22.62;31.40;102157.66;5017693;28;96993;-68
2022/05/06 07:16:21;;;;;;;;;;;;;;;23.18;30.51;102158.50;5016620;28;97039;-68
2022/05/06 07:18:49;;;;;;;;;;;;;;;22.40;31.22;102154.56;5016207;28;98136;-71
2022/05/06 07:21:15;;;;;;;;;;;;;;;22.21;31.99;102157.56;5016024;28;98025;-69
2022/05/06 07:23:41;;;;;;;;;;;;;;;22.69;31.50;102157.25;5017102;28;97054;-68
2022/05/06 07:26:07;;;;;;;;;;;;;;;21.41;33.46;102162.41;5016612;28;96850;-68
2022/05/06 07:28:34;;;;;;;;;;;;;;;21.97;32.55;102161.75;5015761;28;97922;-67
2022/05/06 07:31:00;;;;;;;;;;;;;;;22.05;32.41;102162.16;5010878;28;97417;-69
2022/05/06 07:33:26;;;;;;;;;;;;;;;22.05;32.45;102169.38;5016619;28;96671;-67
2022/05/06 07:35:55;;;;;;;;;;;;;;;22.17;32.33;102174.00;5016506;28;96890;-68
2022/05/06 07:38:22;;;;;;;;;;;;;;;22.34;32.30;102171.13;5016314;28;99447;-68
2022/05/06 07:40:48;;;;;;;;;;;;;;;21.17;34.16;102174.59;5016026;28;99262;-70
2022/05/06 07:43:15;;;;;;;;;;;;;;;21.86;33.38;102162.34;5016047;28;96773;-69
2022/05/06 07:45:41;;;;;;;;;;;;;;;22.00;33.03;102169.63;5016249;28;97154;-68
2022/05/06 07:48:08;;;;;;;;;;;;;;;22.00;33.07;102166.94;5015062;28;99230;-68
2022/05/06 07:50:35;;;;;;;;;;;;;;;22.09;32.72;102168.22;5015574;28;96789;-68
2022/05/06 07:53:02;;;;;;;;;;;;;;;22.11;33.12;102175.25;5016209;28;97031;-69
2022/05/06 07:55:29;;;;;;;;;;;;;;;22.52;32.75;102174.47;5016103;28;97171;-68
2022/05/06 07:57:57;;;;;;;;;;;;;;;22.59;32.34;102178.50;5015054;28;101097;-69
2022/05/06 08:00:24;;;;;;;;;;;;;;;21.96;33.48;102172.63;5007256;28;97772;-69
2022/05/06 08:05:34;;;;;;;;;;;;;;;21.55;34.43;102167.84;5002069;28;96931;-69
2022/05/06 08:08:01;;;;;;;;;;;;;;;22.23;33.24;102170.94;5003195;28;99218;-68
2022/05/06 08:10:28;;;;;;;;;;;;;;;22.45;32.80;102173.16;5008760;28;98854;-68
2022/05/06 08:12:55;;;;;;;;;;;;;;;22.52;32.58;102169.97;5013118;28;97117;-69
2022/05/06 08:15:21;;;;;;;;;;;;;;;23.35;31.43;102176.28;5006842;28;98096;-69
2022/05/06 08:17:49;;;;;;;;;;;;;;;23.14;31.95;102181.25;5006767;28;98990;-70
2022/05/06 08:20:15;;;;;;;;;;;;;;;22.73;32.36;102174.97;5007605;28;98401;-69
2022/05/06 08:22:42;;;;;;;;;;;;;;;22.16;33.48;102174.97;5010128;28;97623;-69
2022/05/06 08:25:09;;;;;;;;;;;;;;;22.20;33.37;102173.78;5006714;28;97067;-68
2022/05/06 08:27:40;;;;;;;;;;;;;;;22.45;33.40;102170.47;5006703;28;99029;-69
2022/05/06 08:30:07;;;;;;;;;;;;;;;23.02;32.55;102176.66;5005366;28;98938;-68
2022/05/06 08:32:36;;;;;;;;;;;;;;;22.81;32.50;102170.84;5007778;28;98399;-72
2022/05/06 08:35:03;;;;;;;;;;;;;;;22.97;32.38;102170.72;5006222;28;97753;-69
2022/05/06 08:37:30;;;;;;;;;;;;;;;22.80;32.05;102176.31;5010130;28;99068;-70
2022/05/06 08:39:56;;;;;;;;;;;;;;;22.53;32.79;102169.00;5004352;28;97741;-70
2022/05/06 08:42:23;;;;;;;;;;;;;;;21.77;34.19;102168.31;5009304;28;97101;-71
2022/05/06 08:53:03;;;;;;;;;;;;;;;22.72;32.66;102160.59;5003881;28;97896;-68
2022/05/06 08:55:29;;;;;;;;;;;;;;;22.00;33.70;102163.38;5000980;28;96987;-69
2022/05/06 08:57:56;;;;;;;;;;;;;;;22.60;32.74;102164.09;5003051;28;99469;-69
2022/05/06 09:00:24;;;;;;;;;;;;;;;22.32;33.45;102172.19;5005543;28;97613;-69
2022/05/06 09:02:50;;;;;;;;;;;;;;;21.60;34.67;102159.50;5004102;28;96712;-68
2022/05/06 09:05:17;;;;;;;;;;;;;;;21.93;34.21;102170.06;5011866;28;96913;-69
2022/05/06 09:07:54;;;;;;;;;;;;;;;22.29;33.63;102162.47;5007215;28;98943;-69
2022/05/06 09:10:20;;;;;;;;;;;;;;;22.17;33.86;102169.47;5001749;28;98800;-69
2022/05/06 09:12:47;;;;;;;;;;;;;;;23.37;32.00;102161.72;5007469;28;96948;-69
2022/05/06 09:18:00;;;;;;;;;;;;;;;21.45;33.58;102158.59;5010314;28;97231;-68
2022/05/06 09:20:27;;;;;;;;;;;;;;;22.15;32.87;102157.06;5010867;28;99260;-69
2022/05/06 09:22:53;;;;;;;;;;;;;;;22.18;32.69;102159.59;5016301;28;97490;-69
2022/05/06 09:25:38;;;;;;;;;;;;;;;22.30;32.44;102157.94;5008900;28;96907;-68
2022/05/06 09:28:06;;;;;;;;;;;;;;;23.00;31.10;102154.34;5007490;28;97686;-69
2022/05/06 09:30:33;;;;;;;;;;;;;;;23.81;29.80;102152.47;5015841;28;99275;-68
2022/05/06 09:33:01;;;;;;;;;;;;;;;23.91;29.45;102150.00;5013783;28;96881;-69
2022/05/06 09:35:27;;;;;;;;;;;;;;;23.53;30.95;102142.69;5017149;28;96915;-69
2022/05/06 09:37:54;;;;;;;;;;;;;;;23.61;30.52;102147.59;5013454;28;99397;-69
2022/05/06 09:40:21;;;;;;;;;;;;;;;23.43;30.72;102147.81;5016545;28;99214;-69
2022/05/06 09:42:58;;;;;;;;;;;;;;;23.16;30.84;102146.97;5008837;28;98603;-69
2022/05/06 09:45:29;;;;;;;;;;;;;;;22.27;32.70;102150.91;5012244;28;96795;-69
2022/05/06 09:47:57;;;;;;;;;;;;;;;22.75;32.19;102148.81;5004225;28;98933;-69
2022/05/06 09:50:32;;;;;;;;;;;;;;;23.27;31.34;102147.13;5009077;28;98989;-69
2022/05/06 09:52:59;;;;;;;;;;;;;;;23.24;31.15;102144.63;5005700;28;96821;-69
2022/05/06 09:55:25;;;;;;;;;;;;;;;23.66;30.77;102142.72;5012321;28;96928;-71
2022/05/06 09:57:52;;;;;;;;;;;;;;;24.16;29.83;102142.78;5009820;28;99017;-69
2022/05/06 10:00:18;;;;;;;;;;;;;;;23.38;30.70;102135.59;5007746;28;98684;-69
2022/05/06 10:02:45;;;;;;;;;;;;;;;22.95;31.36;102133.09;5013107;28;96721;-69
2022/05/06 10:05:11;;;;;;;;;;;;;;;22.25;32.52;102140.22;5011275;28;98343;-69
2022/05/06 10:07:41;;;;;;;;;;;;;;;21.71;33.06;102131.03;5013384;28;99142;-69
2022/05/06 10:10:08;;;;;;;;;;;;;;;22.31;32.19;102144.41;5013341;28;98976;-69
2022/05/06 10:12:37;;;;;;;;;;;;;;;22.01;32.49;102136.38;5012045;28;97136;-69
2022/05/06 10:15:08;;;;;;;;;;;;;;;23.11;30.68;102134.75;5014106;28;96962;-70
2022/05/06 10:17:48;;;;;;;;;;;;;;;23.58;29.85;102120.78;5014142;28;98919;-69
2022/05/06 10:20:46;;;;;;;;;;;;;;;24.07;28.96;102129.94;5011591;28;98767;-69
2022/05/06 10:23:15;;;;;;;;;;;;;;;24.07;28.70;102127.22;5011641;28;96762;-70
2022/05/06 10:25:48;;;;;;;;;;;;;;;23.95;28.67;102125.41;5010040;28;96911;-72
2022/05/06 10:34:15;;;;;;;;;;;;;;;22.91;30.82;102111.78;5008716;28;96848;-68
2022/05/06 10:36:42;;;;;;;;;;;;;;;23.46;29.78;102114.38;5008951;28;97213;-70
2022/05/06 10:39:20;;;;;;;;;;;;;;;23.21;29.11;102123.25;5012688;28;97829;-68
2022/05/06 10:41:59;;;;;;;;;;;;;;;23.43;28.74;102114.59;5011010;28;98977;-70
2022/05/06 10:44:32;;;;;;;;;;;;;;;22.98;29.27;102115.81;5008153;28;97389;-69
2022/05/06 10:46:58;;;;;;;;;;;;;;;23.26;28.82;102107.63;5005263;28;97581;-68
2022/05/06 10:49:50;;;;;;;;;;;;;;;23.99;28.25;102101.72;5009397;28;99351;-69
2022/05/06 10:52:35;;;;;;;;;;;;;;;24.23;27.83;102102.72;5013534;28;101301;-70
2022/05/06 10:55:03;;;;;;;;;;;;;;;24.55;27.57;102095.84;5006960;28;96781;-69
2022/05/06 10:57:30;;;;;;;;;;;;;;;24.52;27.73;102100.63;5011218;28;96778;-69
2022/05/06 10:59:57;;;;;;;;;;;;;;;24.95;27.75;102103.75;5010684;28;99924;-70
2022/05/06 11:02:24;;;;;;;;;;;;;;;24.99;27.56;102095.31;5010326;28;98886;-69
2022/05/06 11:04:51;;;;;;;;;;;;;;;24.11;28.94;102095.47;5004339;28;96839;-68
2022/05/06 11:07:18;;;;;;;;;;;;;;;24.30;28.06;102090.50;5013103;28;96912;-70
2022/05/06 11:09:45;;;;;;;;;;;;;;;24.17;28.36;102093.19;5013960;28;100444;-69
2022/05/06 11:12:28;;;;;;;;;;;;;;;23.80;28.94;102085.97;5012556;28;100947;-70
2022/05/06 11:14:54;;;;;;;;;;;;;;;22.73;30.52;102086.06;5013667;28;96795;-70
2022/05/06 11:17:22;;;;;;;;;;;;;;;23.28;29.64;102078.75;5010382;28;96911;-69
2022/05/06 11:19:48;;;;;;;;;;;;;;;23.23;29.89;102080.03;5011966;28;99604;-70
2022/05/06 11:22:15;;;;;;;;;;;;;;;22.85;29.46;102074.47;5010585;28;98768;-70
2022/05/06 11:24:41;;;;;;;;;;;;;;;22.51;30.14;102073.94;5012757;28;97094;-69
2022/05/06 11:27:16;;;;;;;;;;;;;;;22.73;30.01;102070.75;5010048;28;96959;-69
2022/05/06 11:29:48;;;;;;;;;;;;;;;23.17;29.00;102069.66;5008263;28;99756;-71
2022/05/06 11:32:14;;;;;;;;;;;;;;;22.66;29.26;102067.56;5010581;28;99043;-71
2022/05/06 11:34:47;;;;;;;;;;;;;;;23.65;27.94;102060.91;5012968;28;96872;-70
2022/05/06 11:37:20;;;;;;;;;;;;;;;23.75;28.50;102063.84;5010120;28;97680;-70
2022/05/06 11:39:46;;;;;;;;;;;;;;;24.07;27.68;102065.13;5011885;28;97893;-70
2022/05/06 11:42:21;;;;;;;;;;;;;;;24.57;27.00;102058.78;5010385;28;97588;-69
2022/05/06 11:47:36;;;;;;;;;;;;;;;24.13;28.47;102059.28;4993206;28;96950;-69
2022/05/06 11:50:03;;;;;;;;;;;;;;;24.21;28.66;102056.94;5012601;28;99336;-69
2022/05/06 11:52:29;;;;;;;;;;;;;;;24.23;28.67;102059.50;5009896;28;99524;-70
2022/05/06 11:54:55;;;;;;;;;;;;;;;24.80;27.75;102050.81;5013897;28;96960;-69
2022/05/06 11:57:23;;;;;;;;;;;;;;;25.18;26.47;102040.69;5012097;28;96905;-70
2022/05/06 11:59:49;;;;;;;;;;;;;;;24.88;26.14;102051.94;5009713;28;97716;-71
2022/05/06 12:02:16;;;;;;;;;;;;;;;25.42;25.19;102044.22;5012646;28;98556;-70
2022/05/06 12:04:43;;;;;;;;;;;;;;;24.25;26.63;102043.19;5008982;28;98369;-70
2022/05/06 12:07:09;;;;;;;;;;;;;;;24.95;25.98;102042.44;5013872;28;97062;-70
2022/05/06 12:09:42;;;;;;;;;;;;;;;24.22;26.66;102047.84;5007626;28;98846;-69
2022/05/06 12:12:09;;;;;;;;;;;;;;;24.48;26.92;102048.63;5011425;28;99410;-69
2022/05/06 12:14:36;;;;;;;;;;;;;;;24.17;27.40;102043.72;5011861;28;97411;-70
2022/05/06 12:17:03;;;;;;;;;;;;;;;24.55;26.92;102044.50;5012055;28;96871;-70
2022/05/06 12:19:33;;;;;;;;;;;;;;;24.43;27.10;102045.41;5006502;28;98940;-69
2022/05/06 12:22:03;;;;;;;;;;;;;;;23.86;28.58;102045.06;5010254;28;100972;-70
2022/05/06 12:24:38;;;;;;;;;;;;;;;24.29;27.63;102045.56;5006492;28;97423;-69
2022/05/06 12:27:05;;;;;;;;;;;;;;;24.34;27.77;102046.09;5008716;28;96912;-69
2022/05/06 12:29:37;;;;;;;;;;;;;;;24.89;26.70;102040.19;5007968;28;97866;-69
2022/05/06 12:32:04;;;;;;;;;;;;;;;24.48;27.47;102050.50;5010013;28;98855;-70
2022/05/06 12:34:31;;;;;;;;;;;;;;;24.25;27.59;102049.47;5006377;28;97803;-70
2022/05/06 12:37:08;;;;;;;;;;;;;;;24.86;26.81;102040.41;5005899;28;97086;-70
2022/05/06 12:39:39;;;;;;;;;;;;;;;24.82;26.72;102041.59;5008893;28;99457;-70
2022/05/06 12:42:11;;;;;;;;;;;;;;;23.87;27.46;102037.81;5010878;28;97728;-70
2022/05/06 12:44:39;;;;;;;;;;;;;;;23.69;28.12;102035.47;5012031;28;96895;-71
2022/05/06 12:47:12;;;;;;;;;;;;;;;23.72;28.74;102039.75;5012366;28;96889;-69
2022/05/06 12:49:40;;;;;;;;;;;;;;;23.41;28.79;102041.88;5011608;28;99001;-68
2022/05/06 12:52:08;;;;;;;;;;;;;;;23.29;28.49;102036.47;5010555;28;98198;-68
2022/05/06 12:54:34;;;;;;;;;;;;;;;23.21;28.45;102034.28;5007320;28;96994;-69
2022/05/06 12:57:01;;;;;;;;;;;;;;;24.23;27.47;102030.66;5008144;28;96888;-70
2022/05/06 12:59:28;;;;;;;;;;;;;;;23.63;27.46;102043.94;5007572;28;98997;-70
2022/05/06 13:01:56;;;;;;;;;;;;;;;24.05;26.82;102037.38;5011373;28;99519;-70
2022/05/06 13:04:22;;;;;;;;;;;;;;;24.49;26.13;102031.44;5004242;28;96924;-71
2022/05/06 13:06:49;;;;;;;;;;;;;;;25.11;24.63;102028.63;5009690;28;97180;-72
2022/05/06 13:09:15;;;;;;;;;;;;;;;25.38;24.12;102031.91;5007550;28;103385;-69
2022/05/06 13:11:41;;;;;;;;;;;;;;;25.33;24.56;102026.00;5008423;28;98875;-69
2022/05/06 13:14:08;;;;;;;;;;;;;;;25.42;25.05;102009.03;5010421;28;96929;-70
2022/05/06 13:16:35;;;;;;;;;;;;;;;26.24;24.64;102023.31;5011946;28;97010;-70
2022/05/06 13:19:03;;;;;;;;;;;;;;;26.10;24.27;102023.53;5011043;28;98958;-69
2022/05/06 13:21:29;;;;;;;;;;;;;;;25.83;25.20;102014.91;5012091;28;98456;-69